Аэропорт: Одесса. Одесса

ICAO: UKOO

METAR:
2019-07-23 18:30:00
UKOO 231830Z 31004MPS CAVOK 24/10 Q1013 R34/090060 NOSIG
METAR:
2019-07-23 17:05:00
TAF UKOO 231705Z 2318/2418 34007G14MPS 6000 BKN010 SCT020CB TX30/2412Z TN18/2402Z PROB40 TEMPO 2318/2324 VRB10G18MPS 1000 TSRA SQ BKN003 BKN017CB BECMG 2410/2411 30003MPS